Terminal Aerodrome Forecast
Issued by NWS Jacksonville, FL

Home | Current Version | Previous Version | Text Only | Print | Product List | Glossary On
Versions: 1 2 3 4 5 6 7 8 9 10 11 12 13 14 15 16 17 18 19 20 21 22 23 24
000
FTUS42 KJAX 191612 AAB
TAFJAX
TAF AMD
KJAX 191612Z 1916/2012 31007KT P6SM BKN015
     FM191700 31007KT P6SM SCT020
     FM200000 VRB03KT P6SM SKC
     FM200900 VRB03KT 4SM BR SKC=

USA.gov is the U.S. government's official web portal to all federal, state and local government web resources and services.